createdAt,value
2023-05-16T00:00:49.382Z,75.30
2023-05-16T00:03:21.956Z,75.40
2023-05-16T00:05:51.134Z,75.70
2023-05-16T00:08:19.877Z,75.70
2023-05-16T00:10:52.740Z,75.80
2023-05-16T00:13:25.278Z,75.90
2023-05-16T00:15:55.889Z,75.90
2023-05-16T00:18:27.424Z,76.10
2023-05-16T00:20:56.911Z,76.20
2023-05-16T00:23:26.794Z,76.10
2023-05-16T00:25:57.235Z,76.20
2023-05-16T00:28:25.726Z,76.20
2023-05-16T00:30:54.573Z,76.30
2023-05-16T00:33:24.857Z,76.30
2023-05-16T00:35:54.092Z,76.40
2023-05-16T00:38:24.466Z,76.40
2023-05-16T00:40:52.982Z,76.50
2023-05-16T00:43:24.841Z,76.50
2023-05-16T00:45:54.176Z,76.50
2023-05-16T00:48:24.126Z,76.60
2023-05-16T00:50:54.130Z,76.70
2023-05-16T00:53:25.011Z,76.80
2023-05-16T00:55:53.666Z,76.80
2023-05-16T00:58:24.566Z,76.70
2023-05-16T01:00:53.392Z,76.90
2023-05-16T01:03:22.568Z,76.80
2023-05-16T01:05:52.859Z,76.80
2023-05-16T01:08:21.878Z,76.90
2023-05-16T01:11:05.064Z,76.90
2023-05-16T01:13:45.645Z,76.90
2023-05-16T01:16:23.373Z,76.90
2023-05-16T01:19:02.634Z,76.90
2023-05-16T01:21:46.041Z,76.90
2023-05-16T01:24:26.483Z,76.90
2023-05-16T01:26:58.420Z,77.00
2023-05-16T01:29:28.026Z,76.90
2023-05-16T01:31:58.605Z,76.90
2023-05-16T01:34:28.096Z,77.00
2023-05-16T01:37:05.952Z,77.00
2023-05-16T01:39:39.959Z,77.00
2023-05-16T01:42:14.214Z,77.10
2023-05-16T01:44:46.152Z,77.10
2023-05-16T01:47:18.481Z,77.10
2023-05-16T01:49:56.644Z,76.90
2023-05-16T01:52:36.717Z,76.90
2023-05-16T01:55:11.712Z,76.80
2023-05-16T01:57:42.140Z,76.80
2023-05-16T02:00:13.304Z,76.80
2023-05-16T02:02:49.769Z,76.80
2023-05-16T02:05:21.352Z,76.80
2023-05-16T02:07:50.080Z,76.80
2023-05-16T02:10:19.734Z,76.80
2023-05-16T02:12:50.876Z,76.80
2023-05-16T02:15:22.829Z,77.00
2023-05-16T02:17:51.493Z,77.00
2023-05-16T02:20:20.016Z,77.10
2023-05-16T02:22:50.098Z,77.10
2023-05-16T02:25:20.865Z,77.10
2023-05-16T02:27:52.096Z,77.10
2023-05-16T02:33:21.931Z,77.10
2023-05-16T02:36:00.322Z,77.20
2023-05-16T02:38:36.291Z,77.20
2023-05-16T02:41:05.232Z,77.20
2023-05-16T02:43:36.996Z,77.20
2023-05-16T02:46:08.493Z,77.20
2023-05-16T02:48:41.345Z,77.40
2023-05-16T02:51:10.493Z,77.40
2023-05-16T02:53:40.841Z,77.40
2023-05-16T02:56:14.261Z,77.40
2023-05-16T02:58:52.160Z,77.40
2023-05-16T03:01:21.263Z,77.40
2023-05-16T03:03:51.410Z,77.50
2023-05-16T03:06:20.428Z,77.60
2023-05-16T03:08:50.836Z,77.50
2023-05-16T03:11:22.678Z,77.60
2023-05-16T03:13:54.998Z,77.60
2023-05-16T03:16:23.346Z,77.60
2023-05-16T03:19:08.348Z,77.70
2023-05-16T03:21:38.972Z,77.70
2023-05-16T03:24:24.614Z,77.70
2023-05-16T03:26:55.338Z,77.80
2023-05-16T03:29:27.386Z,77.70
2023-05-16T03:31:56.919Z,77.80
2023-05-16T03:34:31.154Z,77.70
2023-05-16T03:36:59.663Z,77.70
2023-05-16T03:39:45.264Z,77.80
2023-05-16T03:42:20.394Z,77.70
2023-05-16T03:45:06.776Z,77.60
2023-05-16T03:47:36.480Z,77.70
2023-05-16T03:50:07.884Z,77.60
2023-05-16T03:52:38.767Z,77.60
2023-05-16T03:55:10.071Z,77.60
2023-05-16T03:57:42.306Z,77.60
2023-05-16T04:00:20.055Z,77.60
2023-05-16T04:02:57.828Z,77.60
2023-05-16T04:05:28.659Z,77.60
2023-05-16T04:07:58.447Z,77.60
2023-05-16T04:13:33.364Z,77.60
2023-05-16T04:16:07.151Z,77.40
2023-05-16T04:18:37.957Z,77.50
2023-05-16T04:21:14.082Z,77.40
2023-05-16T04:23:46.796Z,77.40
2023-05-16T04:26:18.025Z,77.40
2023-05-16T04:29:11.015Z,77.40
2023-05-16T04:31:41.319Z,77.20
2023-05-16T04:34:18.161Z,76.90
2023-05-16T04:36:50.158Z,76.80
2023-05-16T04:39:20.802Z,76.70
2023-05-16T04:41:54.109Z,76.10
2023-05-16T04:44:28.717Z,76.00
2023-05-16T04:47:16.542Z,75.90
2023-05-16T04:52:35.494Z,75.70
2023-05-16T04:55:05.004Z,75.70
2023-05-16T05:00:39.888Z,75.70
2023-05-16T05:03:14.658Z,75.50
2023-05-16T05:05:46.243Z,75.60
2023-05-16T05:08:17.555Z,75.50
2023-05-16T05:10:54.955Z,75.60
2023-05-16T05:13:26.015Z,75.80
2023-05-16T05:15:54.760Z,75.70
2023-05-16T05:18:24.680Z,74.90
2023-05-16T05:23:59.030Z,74.70
2023-05-16T05:26:31.252Z,75.00
2023-05-16T05:29:05.319Z,75.00
2023-05-16T05:31:54.412Z,74.80
2023-05-16T05:34:29.083Z,74.90
2023-05-16T05:37:01.243Z,74.80
2023-05-16T05:39:29.757Z,74.80
2023-05-16T05:45:21.741Z,74.80
2023-05-16T05:51:30.953Z,74.60
2023-05-16T05:54:25.846Z,74.30
2023-05-16T05:57:06.230Z,74.60
2023-05-16T05:59:49.073Z,74.70
2023-05-16T06:02:17.601Z,74.50
2023-05-16T06:04:46.582Z,74.40
2023-05-16T06:07:16.429Z,74.50
2023-05-16T06:09:46.534Z,74.70
2023-05-16T06:12:15.558Z,74.80
2023-05-16T06:14:44.343Z,74.90
2023-05-16T06:17:12.957Z,74.90
2023-05-16T06:19:41.152Z,75.00
2023-05-16T06:22:09.753Z,75.20
2023-05-16T06:24:37.897Z,75.40
2023-05-16T06:27:07.930Z,75.40
2023-05-16T06:29:37.012Z,75.30
2023-05-16T06:32:05.717Z,75.40
2023-05-16T06:34:34.027Z,75.30
2023-05-16T06:37:04.176Z,75.20
2023-05-16T06:39:32.740Z,75.10
2023-05-16T06:42:01.002Z,75.10
2023-05-16T06:44:35.346Z,74.80
2023-05-16T06:47:04.150Z,74.40
2023-05-16T06:49:32.683Z,73.80
2023-05-16T06:52:01.166Z,74.00
2023-05-16T06:54:29.421Z,74.10
2023-05-16T06:56:57.904Z,73.90
2023-05-16T06:59:29.256Z,74.10
2023-05-16T07:02:00.845Z,73.90
2023-05-16T07:04:29.649Z,74.00
2023-05-16T07:06:58.133Z,74.00
2023-05-16T07:09:26.460Z,74.30
2023-05-16T07:11:59.269Z,74.40
2023-05-16T07:14:30.769Z,74.70
2023-05-16T07:17:00.788Z,74.60
2023-05-16T07:19:29.230Z,74.90
2023-05-16T07:21:57.947Z,75.10
2023-05-16T07:24:26.395Z,75.20
2023-05-16T07:26:55.787Z,75.20
2023-05-16T07:29:24.578Z,75.10
2023-05-16T07:31:53.175Z,75.30
2023-05-16T07:34:24.039Z,75.10
2023-05-16T07:36:53.040Z,74.90
2023-05-16T07:39:21.569Z,75.10
2023-05-16T07:41:50.600Z,75.10
2023-05-16T07:44:19.078Z,75.00
2023-05-16T07:46:47.973Z,74.80
2023-05-16T07:49:16.668Z,74.80
2023-05-16T07:51:49.440Z,74.80
2023-05-16T07:54:18.138Z,74.80
2023-05-16T07:56:47.614Z,74.70
2023-05-16T07:59:16.940Z,74.70
2023-05-16T08:01:45.709Z,74.70
2023-05-16T08:04:14.927Z,74.80
2023-05-16T08:06:44.248Z,74.80
2023-05-16T08:09:14.414Z,75.20
2023-05-16T08:11:45.278Z,75.20
2023-05-16T08:14:13.740Z,75.30
2023-05-16T08:16:43.830Z,75.40
2023-05-16T08:19:13.376Z,75.30
2023-05-16T08:21:42.159Z,75.20
2023-05-16T08:24:11.394Z,75.20
2023-05-16T08:26:44.618Z,75.10
2023-05-16T08:29:13.232Z,75.40
2023-05-16T08:31:42.201Z,75.70
2023-05-16T08:34:10.936Z,76.10
2023-05-16T08:36:39.337Z,76.40
2023-05-16T08:39:11.659Z,76.50
2023-05-16T08:41:41.951Z,76.70
2023-05-16T08:44:12.568Z,76.50
2023-05-16T08:46:44.285Z,76.60
2023-05-16T08:49:13.611Z,76.60
2023-05-16T08:51:42.629Z,76.60
2023-05-16T08:54:16.694Z,76.70
2023-05-16T08:56:48.852Z,76.40
2023-05-16T08:59:17.453Z,76.30
2023-05-16T09:01:46.058Z,75.80
2023-05-16T09:04:15.218Z,75.70
2023-05-16T09:06:44.098Z,75.30
2023-05-16T09:09:13.484Z,75.00
2023-05-16T09:11:43.661Z,75.10
2023-05-16T09:14:14.369Z,74.60
2023-05-16T09:16:44.265Z,74.40
2023-05-16T09:19:15.516Z,74.80
2023-05-16T09:21:44.668Z,74.50
2023-05-16T09:24:13.382Z,74.30
2023-05-16T09:26:41.845Z,74.30
2023-05-16T09:29:15.762Z,74.00
2023-05-16T09:31:44.826Z,73.70
2023-05-16T09:34:13.488Z,73.70
2023-05-16T09:36:44.030Z,73.00
2023-05-16T09:39:16.890Z,72.20
2023-05-16T09:41:46.360Z,71.60
2023-05-16T09:44:19.705Z,70.90
2023-05-16T09:46:48.164Z,70.50
2023-05-16T09:49:17.390Z,70.50
2023-05-16T09:51:46.150Z,69.50
2023-05-16T09:54:14.797Z,68.70
2023-05-16T09:56:55.765Z,68.50
2023-05-16T09:59:25.885Z,68.30
2023-05-16T10:01:57.753Z,67.10
2023-05-16T10:04:26.751Z,66.50
2023-05-16T10:06:57.827Z,66.70
2023-05-16T10:09:27.049Z,66.50
2023-05-16T10:11:57.355Z,66.70
2023-05-16T10:14:28.452Z,66.60
2023-05-16T10:16:59.381Z,65.40
2023-05-16T10:19:27.824Z,64.60
2023-05-16T10:22:01.184Z,63.70
2023-05-16T10:24:35.850Z,62.90
2023-05-16T10:27:06.456Z,64.30
2023-05-16T10:29:52.978Z,65.50
2023-05-16T10:32:25.974Z,66.20
2023-05-16T10:34:57.144Z,66.10
2023-05-16T10:37:26.532Z,65.50
2023-05-16T10:39:55.405Z,65.80
2023-05-16T10:42:23.912Z,66.00
2023-05-16T10:45:04.826Z,67.60
2023-05-16T10:47:36.135Z,67.00
2023-05-16T10:50:04.812Z,67.40
2023-05-16T10:52:35.704Z,67.20
2023-05-16T10:55:06.083Z,66.20
2023-05-16T10:57:39.474Z,66.40
2023-05-16T11:00:23.912Z,64.90
2023-05-16T11:02:52.794Z,63.90
2023-05-16T11:05:22.286Z,62.90
2023-05-16T11:08:05.793Z,61.40
2023-05-16T11:10:34.391Z,61.40
2023-05-16T11:13:11.625Z,60.60
2023-05-16T11:15:42.432Z,60.80
2023-05-16T11:18:16.493Z,60.50
2023-05-16T11:20:45.301Z,58.30
2023-05-16T11:23:23.527Z,57.50
2023-05-16T11:25:57.519Z,56.00
2023-05-16T11:28:28.048Z,57.10
2023-05-16T11:31:01.032Z,55.90
2023-05-16T11:33:35.498Z,55.10
2023-05-16T11:36:15.722Z,55.00
2023-05-16T11:38:44.933Z,53.70
2023-05-16T11:41:15.710Z,52.80
2023-05-16T11:43:46.332Z,52.60
2023-05-16T11:46:17.498Z,52.40
2023-05-16T11:48:48.127Z,52.60
2023-05-16T11:51:20.963Z,52.70
2023-05-16T11:53:51.284Z,53.30
2023-05-16T11:56:22.268Z,52.60
2023-05-16T11:58:51.262Z,50.40
2023-05-16T12:01:21.385Z,49.90
2023-05-16T12:03:57.579Z,48.30
2023-05-16T12:06:26.423Z,47.10
2023-05-16T12:08:58.254Z,46.40
2023-05-16T12:11:27.325Z,46.50
2023-05-16T12:13:56.345Z,47.00
2023-05-16T12:16:26.987Z,46.50
2023-05-16T12:18:56.367Z,47.20
2023-05-16T12:21:26.806Z,47.90
2023-05-16T12:23:58.373Z,47.00
2023-05-16T12:26:33.422Z,47.00
2023-05-16T12:29:03.645Z,46.20
2023-05-16T12:31:41.729Z,46.00
2023-05-16T12:34:20.581Z,45.60
2023-05-16T12:36:54.612Z,45.90
2023-05-16T12:39:24.121Z,42.80
2023-05-16T12:41:55.129Z,42.50
2023-05-16T12:44:25.388Z,41.50
2023-05-16T12:46:58.116Z,39.60
2023-05-16T12:49:29.902Z,38.10
2023-05-16T12:52:06.097Z,38.90
2023-05-16T12:54:34.653Z,38.10
2023-05-16T12:57:04.654Z,37.90
2023-05-16T12:59:37.046Z,35.20
2023-05-16T13:02:08.880Z,36.50
2023-05-16T13:04:37.361Z,36.90
2023-05-16T13:07:06.912Z,36.80
2023-05-16T13:09:35.856Z,35.80
2023-05-16T13:12:04.896Z,35.90
2023-05-16T13:14:34.760Z,34.90
2023-05-16T13:17:04.554Z,35.60
2023-05-16T13:19:35.041Z,35.20
2023-05-16T13:22:04.256Z,35.30
2023-05-16T13:24:34.491Z,35.60
2023-05-16T13:27:02.860Z,34.90
2023-05-16T13:29:31.460Z,35.00
2023-05-16T13:32:00.490Z,35.10
2023-05-16T13:34:29.764Z,34.50
2023-05-16T13:37:00.011Z,35.10
2023-05-16T13:39:28.887Z,36.70
2023-05-16T13:42:00.078Z,37.20
2023-05-16T13:44:31.216Z,37.80
2023-05-16T13:47:00.081Z,35.90
2023-05-16T13:49:29.440Z,36.00
2023-05-16T13:52:01.654Z,36.70
2023-05-16T13:54:30.721Z,37.60
2023-05-16T13:56:58.955Z,36.70
2023-05-16T13:59:52.580Z,36.20
2023-05-16T14:02:17.652Z,35.60
2023-05-16T14:04:49.100Z,36.30
2023-05-16T14:07:20.891Z,37.10
2023-05-16T14:09:49.728Z,36.10
2023-05-16T14:12:18.711Z,36.60
2023-05-16T14:14:49.744Z,36.70
2023-05-16T14:17:18.883Z,36.50
2023-05-16T14:19:48.128Z,35.80
2023-05-16T14:22:16.731Z,35.60
2023-05-16T14:24:49.932Z,33.60
2023-05-16T14:27:18.701Z,34.80
2023-05-16T14:29:49.105Z,33.50
2023-05-16T14:32:18.085Z,33.60
2023-05-16T14:34:47.994Z,34.70
2023-05-16T14:37:18.596Z,36.10
2023-05-16T14:39:50.776Z,37.40
2023-05-16T14:42:21.642Z,37.20
2023-05-16T14:44:50.288Z,38.00
2023-05-16T14:47:19.215Z,38.50
2023-05-16T14:49:50.008Z,38.90
2023-05-16T14:52:20.845Z,38.60
2023-05-16T14:54:52.281Z,37.40
2023-05-16T14:57:20.855Z,37.10
2023-05-16T14:59:50.919Z,36.40
2023-05-16T15:02:22.661Z,35.50
2023-05-16T15:04:52.329Z,35.80
2023-05-16T15:07:21.392Z,37.60
2023-05-16T15:09:52.083Z,39.00
2023-05-16T15:12:21.414Z,39.80
2023-05-16T15:14:54.188Z,39.30
2023-05-16T15:17:23.304Z,39.50
2023-05-16T15:19:55.767Z,39.30
2023-05-16T15:22:24.371Z,38.30
2023-05-16T15:24:54.572Z,38.00
2023-05-16T15:27:24.472Z,37.40
2023-05-16T15:29:53.213Z,37.20
2023-05-16T15:32:22.574Z,37.30
2023-05-16T15:34:51.497Z,38.00
2023-05-16T15:37:20.453Z,38.10
2023-05-16T15:39:49.336Z,38.70
2023-05-16T15:42:20.216Z,39.40
2023-05-16T15:44:51.594Z,39.90
2023-05-16T15:47:23.224Z,41.20
2023-05-16T15:49:53.538Z,40.90
2023-05-16T15:52:22.985Z,40.40
2023-05-16T15:54:54.258Z,39.80
2023-05-16T15:57:25.544Z,38.30
2023-05-16T15:59:54.153Z,38.40
2023-05-16T16:02:23.179Z,38.40
2023-05-16T16:04:52.343Z,38.80
2023-05-16T16:07:21.536Z,38.90
2023-05-16T16:09:50.677Z,39.10
2023-05-16T16:12:22.830Z,38.60
2023-05-16T16:14:53.078Z,39.10
2023-05-16T16:17:21.803Z,39.10
2023-05-16T16:19:51.514Z,38.00
2023-05-16T16:22:21.694Z,38.00
2023-05-16T16:24:51.263Z,36.80
2023-05-16T16:27:21.416Z,36.60
2023-05-16T16:29:49.692Z,36.20
2023-05-16T16:32:21.783Z,35.70
2023-05-16T16:34:50.299Z,36.60
2023-05-16T16:37:23.702Z,37.80
2023-05-16T16:39:55.931Z,37.50
2023-05-16T16:42:25.613Z,38.30
2023-05-16T16:44:54.231Z,38.20
2023-05-16T16:47:25.707Z,38.40
2023-05-16T16:49:55.892Z,39.50
2023-05-16T16:52:26.326Z,39.20
2023-05-16T16:54:56.382Z,40.30
2023-05-16T16:57:27.620Z,39.70
2023-05-16T16:59:59.651Z,40.60
2023-05-16T17:02:32.283Z,40.60
2023-05-16T17:05:04.958Z,41.90
2023-05-16T17:07:33.717Z,43.00
2023-05-16T17:10:05.069Z,43.40
2023-05-16T17:12:35.003Z,44.00
2023-05-16T17:15:06.698Z,45.10
2023-05-16T17:17:38.783Z,45.60
2023-05-16T17:20:10.639Z,46.00
2023-05-16T17:22:42.938Z,45.90
2023-05-16T17:25:11.813Z,46.80
2023-05-16T17:27:40.798Z,46.50
2023-05-16T17:30:14.418Z,46.60
2023-05-16T17:32:47.022Z,46.60
2023-05-16T17:35:16.406Z,47.10
2023-05-16T17:37:44.621Z,46.90
2023-05-16T17:40:17.419Z,47.30
2023-05-16T17:42:51.389Z,47.00
2023-05-16T17:45:20.657Z,47.00
2023-05-16T17:47:56.073Z,47.20
2023-05-16T17:50:24.857Z,47.10
2023-05-16T17:52:56.202Z,47.30
2023-05-16T17:55:26.449Z,47.80
2023-05-16T17:57:55.606Z,48.20
2023-05-16T18:00:26.830Z,48.50
2023-05-16T18:02:58.867Z,48.70
2023-05-16T18:05:31.412Z,48.00
2023-05-16T18:08:05.874Z,47.90
2023-05-16T18:10:50.279Z,48.00
2023-05-16T18:13:23.447Z,48.40
2023-05-16T18:15:55.412Z,49.00
2023-05-16T18:18:30.223Z,48.50
2023-05-16T18:21:00.069Z,49.20
2023-05-16T18:23:29.820Z,49.60
2023-05-16T18:26:00.893Z,50.00
2023-05-16T18:28:31.409Z,50.80
2023-05-16T18:31:01.634Z,50.70
2023-05-16T18:33:33.695Z,51.50
2023-05-16T18:36:05.584Z,51.60
2023-05-16T18:38:34.639Z,52.20
2023-05-16T18:41:08.605Z,52.70
2023-05-16T18:43:37.484Z,53.70
2023-05-16T18:46:07.196Z,53.90
2023-05-16T18:48:38.223Z,54.00
2023-05-16T18:51:07.168Z,54.20
2023-05-16T18:53:36.293Z,54.40
2023-05-16T18:56:05.517Z,54.70
2023-05-16T18:58:39.158Z,55.20
2023-05-16T19:01:09.712Z,55.20
2023-05-16T19:03:39.848Z,55.20
2023-05-16T19:06:09.831Z,55.40
2023-05-16T19:08:47.689Z,55.70
2023-05-16T19:11:19.275Z,56.30
2023-05-16T19:13:48.072Z,56.70
2023-05-16T19:16:17.721Z,57.10
2023-05-16T19:18:49.172Z,57.30
2023-05-16T19:21:18.074Z,57.70
2023-05-16T19:23:47.686Z,58.30
2023-05-16T19:26:18.264Z,58.50
2023-05-16T19:28:47.241Z,58.60
2023-05-16T19:31:16.384Z,59.20
2023-05-16T19:33:45.147Z,59.80
2023-05-16T19:36:27.370Z,60.40
2023-05-16T19:38:56.252Z,61.10
2023-05-16T19:44:14.266Z,62.00
2023-05-16T19:46:47.620Z,62.30
2023-05-16T19:49:19.537Z,63.00
2023-05-16T19:51:50.027Z,63.30
2023-05-16T19:54:18.668Z,63.80
2023-05-16T19:56:47.081Z,64.30
2023-05-16T19:59:18.351Z,64.80
2023-05-16T20:01:46.797Z,65.40
2023-05-16T20:04:19.149Z,65.40
2023-05-16T20:06:50.020Z,65.90
2023-05-16T20:09:20.716Z,66.30
2023-05-16T20:11:53.479Z,66.40
2023-05-16T20:14:27.809Z,67.10
2023-05-16T20:17:00.577Z,67.40
2023-05-16T20:19:32.794Z,67.50
2023-05-16T20:22:02.764Z,67.90
2023-05-16T20:24:34.691Z,68.20
2023-05-16T20:27:06.889Z,68.50
2023-05-16T20:29:35.791Z,69.00
2023-05-16T20:32:04.789Z,69.20
2023-05-16T20:34:34.630Z,69.40
2023-05-16T20:37:05.058Z,69.90
2023-05-16T20:39:35.393Z,69.80
2023-05-16T20:42:05.850Z,70.10
2023-05-16T20:44:35.510Z,70.10
2023-05-16T20:47:07.003Z,70.20
2023-05-16T20:49:39.215Z,70.20
2023-05-16T20:52:10.882Z,70.30
2023-05-16T20:54:41.080Z,70.40
2023-05-16T20:57:11.063Z,70.70
2023-05-16T20:59:42.962Z,70.80
2023-05-16T21:02:14.094Z,71.00
2023-05-16T21:04:42.445Z,71.00
2023-05-16T21:07:14.343Z,71.50
2023-05-16T21:09:42.900Z,71.50
2023-05-16T21:12:12.679Z,71.70
2023-05-16T21:14:44.130Z,71.90
2023-05-16T21:17:14.986Z,72.40
2023-05-16T21:19:45.335Z,72.90
2023-05-16T21:22:18.436Z,72.90
2023-05-16T21:24:47.185Z,73.00
2023-05-16T21:27:17.810Z,73.30
2023-05-16T21:29:49.767Z,73.30
2023-05-16T21:32:18.680Z,73.40
2023-05-16T21:34:50.411Z,73.50
2023-05-16T21:37:21.627Z,73.70
2023-05-16T21:39:51.724Z,73.80
2023-05-16T21:42:26.868Z,74.00
2023-05-16T21:44:57.260Z,74.10
2023-05-16T21:50:23.567Z,74.20
2023-05-16T21:53:03.906Z,74.40
2023-05-16T21:55:32.450Z,74.40
2023-05-16T21:58:01.205Z,74.40
2023-05-16T22:00:31.064Z,74.50
2023-05-16T22:03:00.564Z,74.60
2023-05-16T22:05:44.380Z,74.70
2023-05-16T22:08:24.779Z,74.70
2023-05-16T22:10:59.956Z,74.70
2023-05-16T22:13:34.027Z,74.70
2023-05-16T22:16:07.509Z,74.80
2023-05-16T22:18:37.156Z,74.90
2023-05-16T22:21:07.854Z,74.90
2023-05-16T22:23:40.081Z,74.90
2023-05-16T22:26:09.072Z,74.90
2023-05-16T22:28:37.477Z,75.00
2023-05-16T22:31:07.282Z,75.10
2023-05-16T22:33:35.955Z,75.10
2023-05-16T22:36:05.492Z,75.00
2023-05-16T22:38:34.792Z,75.10
2023-05-16T22:41:06.430Z,75.10
2023-05-16T22:43:35.052Z,75.20
2023-05-16T22:46:04.478Z,75.40
2023-05-16T22:48:35.106Z,75.40
2023-05-16T22:51:05.073Z,75.40
2023-05-16T22:53:35.762Z,75.50
2023-05-16T22:56:06.106Z,75.40
2023-05-16T22:58:34.467Z,75.60
2023-05-16T23:01:05.229Z,75.60
2023-05-16T23:03:35.925Z,75.70
2023-05-16T23:06:04.522Z,75.80
2023-05-16T23:08:34.997Z,75.70
2023-05-16T23:11:05.040Z,75.70
2023-05-16T23:13:34.480Z,75.80
2023-05-16T23:16:03.169Z,75.80
2023-05-16T23:18:31.733Z,75.90
2023-05-16T23:21:00.616Z,76.10
2023-05-16T23:23:29.213Z,76.10
2023-05-16T23:25:57.945Z,76.10
2023-05-16T23:28:30.893Z,76.20
2023-05-16T23:30:59.132Z,76.10
2023-05-16T23:33:28.870Z,76.20
2023-05-16T23:35:58.717Z,76.10
2023-05-16T23:38:28.802Z,76.00
2023-05-16T23:40:58.603Z,76.00
2023-05-16T23:43:30.263Z,76.00
2023-05-16T23:45:58.808Z,75.90
2023-05-16T23:48:27.317Z,76.00
2023-05-16T23:50:56.958Z,75.70
2023-05-16T23:53:29.136Z,75.70
2023-05-16T23:55:59.562Z,75.60
2023-05-16T23:58:29.856Z,75.60
